sensor_id;sensor_type;location;lat;lon;timestamp;pressure;altitude;pressure_sealevel;temperature;humidity
8320;BME280;4197;42.130;24.746;2023-04-01T00:00:53;98677.78;;;9.99;100.00
8320;BME280;4197;42.130;24.746;2023-04-01T00:03:23;98666.53;;;9.97;100.00
8320;BME280;4197;42.130;24.746;2023-04-01T00:05:52;98655.28;;;9.95;100.00
8320;BME280;4197;42.130;24.746;2023-04-01T00:08:20;98654.50;;;9.94;100.00
8320;BME280;4197;42.130;24.746;2023-04-01T00:10:49;98658.50;;;10.04;100.00
8320;BME280;4197;42.130;24.746;2023-04-01T00:13:19;98661.44;;;9.92;100.00
8320;BME280;4197;42.130;24.746;2023-04-01T00:15:47;98662.91;;;9.86;100.00
8320;BME280;4197;42.130;24.746;2023-04-01T00:18:15;98672.91;;;9.81;100.00
8320;BME280;4197;42.130;24.746;2023-04-01T00:20:45;98676.38;;;9.78;100.00
8320;BME280;4197;42.130;24.746;2023-04-01T00:23:15;98671.31;;;9.77;100.00
8320;BME280;4197;42.130;24.746;2023-04-01T00:25:43;98674.75;;;9.74;100.00
8320;BME280;4197;42.130;24.746;2023-04-01T00:28:12;98675.91;;;9.73;100.00
8320;BME280;4197;42.130;24.746;2023-04-01T00:30:41;98676.72;;;9.77;100.00
8320;BME280;4197;42.130;24.746;2023-04-01T00:33:10;98677.34;;;9.97;100.00
8320;BME280;4197;42.130;24.746;2023-04-01T00:35:38;98675.06;;;9.99;98.78
8320;BME280;4197;42.130;24.746;2023-04-01T00:38:07;98672.34;;;9.99;96.84
8320;BME280;4197;42.130;24.746;2023-04-01T00:40:38;98671.75;;;9.82;97.12
8320;BME280;4197;42.130;24.746;2023-04-01T00:43:11;98677.03;;;9.72;97.34
8320;BME280;4197;42.130;24.746;2023-04-01T00:45:42;98672.66;;;9.64;97.80
8320;BME280;4197;42.130;24.746;2023-04-01T00:48:13;98666.78;;;9.58;98.48
8320;BME280;4197;42.130;24.746;2023-04-01T00:50:45;98665.56;;;9.52;98.28
8320;BME280;4197;42.130;24.746;2023-04-01T00:53:14;98671.69;;;9.49;99.10
8320;BME280;4197;42.130;24.746;2023-04-01T00:55:49;98666.28;;;9.49;99.30
8320;BME280;4197;42.130;24.746;2023-04-01T00:58:21;98661.59;;;9.46;99.68
8320;BME280;4197;42.130;24.746;2023-04-01T01:00:52;98659.25;;;9.44;99.99
8320;BME280;4197;42.130;24.746;2023-04-01T01:03:20;98654.63;;;9.45;100.00
8320;BME280;4197;42.130;24.746;2023-04-01T01:06:00;98657.75;;;9.47;100.00
8320;BME280;4197;42.130;24.746;2023-04-01T01:08:41;98655.78;;;9.44;100.00
8320;BME280;4197;42.130;24.746;2023-04-01T01:11:14;98657.72;;;9.43;100.00
8320;BME280;4197;42.130;24.746;2023-04-01T01:13:49;98651.88;;;9.41;100.00
8320;BME280;4197;42.130;24.746;2023-04-01T01:16:26;98656.63;;;9.48;100.00
8320;BME280;4197;42.130;24.746;2023-04-01T01:18:59;98655.19;;;9.57;99.45
8320;BME280;4197;42.130;24.746;2023-04-01T01:21:51;98664.94;;;9.62;98.93
8320;BME280;4197;42.130;24.746;2023-04-01T01:24:52;98669.22;;;9.67;98.51
8320;BME280;4197;42.130;24.746;2023-04-01T01:27:23;98668.75;;;9.61;99.70
8320;BME280;4197;42.130;24.746;2023-04-01T01:30:15;98669.88;;;9.56;99.86
8320;BME280;4197;42.130;24.746;2023-04-01T01:35:56;98659.63;;;9.43;100.00
8320;BME280;4197;42.130;24.746;2023-04-01T01:38:29;98652.38;;;9.50;100.00
8320;BME280;4197;42.130;24.746;2023-04-01T01:40:59;98639.56;;;9.47;100.00
8320;BME280;4197;42.130;24.746;2023-04-01T01:43:31;98643.09;;;9.48;100.00
8320;BME280;4197;42.130;24.746;2023-04-01T01:46:04;98645.72;;;9.44;100.00
8320;BME280;4197;42.130;24.746;2023-04-01T01:48:36;98635.22;;;9.39;100.00
8320;BME280;4197;42.130;24.746;2023-04-01T01:51:07;98636.00;;;9.40;100.00
8320;BME280;4197;42.130;24.746;2023-04-01T01:53:36;98635.28;;;9.43;100.00
8320;BME280;4197;42.130;24.746;2023-04-01T01:56:05;98621.38;;;9.44;100.00
8320;BME280;4197;42.130;24.746;2023-04-01T01:58:38;98613.41;;;9.28;100.00
8320;BME280;4197;42.130;24.746;2023-04-01T02:01:13;98617.59;;;9.22;100.00
8320;BME280;4197;42.130;24.746;2023-04-01T02:03:43;98617.97;;;9.21;100.00
8320;BME280;4197;42.130;24.746;2023-04-01T02:06:17;98610.50;;;9.14;100.00
8320;BME280;4197;42.130;24.746;2023-04-01T02:08:50;98606.22;;;9.09;100.00
8320;BME280;4197;42.130;24.746;2023-04-01T02:11:23;98610.44;;;9.07;100.00
8320;BME280;4197;42.130;24.746;2023-04-01T02:13:55;98600.69;;;9.02;100.00
8320;BME280;4197;42.130;24.746;2023-04-01T02:16:31;98605.28;;;8.98;100.00
8320;BME280;4197;42.130;24.746;2023-04-01T02:19:02;98608.69;;;8.95;100.00
8320;BME280;4197;42.130;24.746;2023-04-01T02:21:36;98621.91;;;9.00;100.00
8320;BME280;4197;42.130;24.746;2023-04-01T02:24:09;98624.03;;;9.14;100.00
8320;BME280;4197;42.130;24.746;2023-04-01T02:26:39;98640.72;;;9.20;100.00
8320;BME280;4197;42.130;24.746;2023-04-01T02:29:09;98627.03;;;9.09;100.00
8320;BME280;4197;42.130;24.746;2023-04-01T02:31:39;98618.38;;;8.96;100.00
8320;BME280;4197;42.130;24.746;2023-04-01T02:34:09;98605.97;;;8.95;100.00
8320;BME280;4197;42.130;24.746;2023-04-01T02:36:38;98596.81;;;8.77;100.00
8320;BME280;4197;42.130;24.746;2023-04-01T02:39:07;98595.56;;;8.70;100.00
8320;BME280;4197;42.130;24.746;2023-04-01T02:41:39;98602.25;;;8.54;100.00
8320;BME280;4197;42.130;24.746;2023-04-01T02:44:08;98592.03;;;8.43;100.00
8320;BME280;4197;42.130;24.746;2023-04-01T02:46:37;98596.59;;;8.39;100.00
8320;BME280;4197;42.130;24.746;2023-04-01T02:49:05;98612.94;;;8.46;100.00
8320;BME280;4197;42.130;24.746;2023-04-01T02:51:34;98613.69;;;8.47;100.00
8320;BME280;4197;42.130;24.746;2023-04-01T02:54:03;98602.06;;;8.43;100.00
8320;BME280;4197;42.130;24.746;2023-04-01T02:56:32;98607.38;;;8.39;100.00
8320;BME280;4197;42.130;24.746;2023-04-01T02:59:00;98599.28;;;8.39;100.00
8320;BME280;4197;42.130;24.746;2023-04-01T03:01:28;98601.63;;;8.41;100.00
8320;BME280;4197;42.130;24.746;2023-04-01T03:03:56;98590.75;;;8.37;100.00
8320;BME280;4197;42.130;24.746;2023-04-01T03:06:25;98594.94;;;8.35;100.00
8320;BME280;4197;42.130;24.746;2023-04-01T03:08:54;98593.31;;;8.30;100.00
8320;BME280;4197;42.130;24.746;2023-04-01T03:11:24;98597.88;;;8.26;100.00
8320;BME280;4197;42.130;24.746;2023-04-01T03:13:52;98603.97;;;8.42;100.00
8320;BME280;4197;42.130;24.746;2023-04-01T03:16:23;98604.97;;;8.34;100.00
8320;BME280;4197;42.130;24.746;2023-04-01T03:18:54;98597.88;;;8.26;100.00
8320;BME280;4197;42.130;24.746;2023-04-01T03:21:26;98603.56;;;8.21;100.00
8320;BME280;4197;42.130;24.746;2023-04-01T03:23:54;98600.75;;;8.14;100.00
8320;BME280;4197;42.130;24.746;2023-04-01T03:26:24;98587.81;;;8.03;100.00
8320;BME280;4197;42.130;24.746;2023-04-01T03:28:53;98577.38;;;8.02;100.00
8320;BME280;4197;42.130;24.746;2023-04-01T03:31:22;98585.47;;;8.02;100.00
8320;BME280;4197;42.130;24.746;2023-04-01T03:33:50;98589.25;;;7.97;100.00
8320;BME280;4197;42.130;24.746;2023-04-01T03:36:21;98581.88;;;7.94;100.00
8320;BME280;4197;42.130;24.746;2023-04-01T03:38:50;98572.94;;;7.90;100.00
8320;BME280;4197;42.130;24.746;2023-04-01T03:41:18;98562.34;;;7.81;100.00
8320;BME280;4197;42.130;24.746;2023-04-01T03:43:49;98563.00;;;7.75;100.00
8320;BME280;4197;42.130;24.746;2023-04-01T03:46:17;98569.38;;;7.67;100.00
8320;BME280;4197;42.130;24.746;2023-04-01T03:48:46;98565.19;;;7.50;100.00
8320;BME280;4197;42.130;24.746;2023-04-01T03:51:14;98577.84;;;7.46;100.00
8320;BME280;4197;42.130;24.746;2023-04-01T03:53:43;98579.47;;;7.50;100.00
8320;BME280;4197;42.130;24.746;2023-04-01T03:56:12;98576.03;;;7.53;100.00
8320;BME280;4197;42.130;24.746;2023-04-01T03:58:41;98576.25;;;7.64;100.00
8320;BME280;4197;42.130;24.746;2023-04-01T04:01:18;98562.44;;;7.66;100.00
8320;BME280;4197;42.130;24.746;2023-04-01T04:03:48;98552.75;;;7.65;100.00
8320;BME280;4197;42.130;24.746;2023-04-01T04:06:18;98540.56;;;7.71;100.00
8320;BME280;4197;42.130;24.746;2023-04-01T04:08:47;98562.16;;;7.71;100.00
8320;BME280;4197;42.130;24.746;2023-04-01T04:11:15;98559.72;;;7.66;100.00
8320;BME280;4197;42.130;24.746;2023-04-01T04:13:44;98562.06;;;7.67;100.00
8320;BME280;4197;42.130;24.746;2023-04-01T04:16:12;98554.84;;;7.71;100.00
8320;BME280;4197;42.130;24.746;2023-04-01T04:18:42;98550.28;;;7.75;100.00
8320;BME280;4197;42.130;24.746;2023-04-01T04:21:12;98553.13;;;7.82;100.00
8320;BME280;4197;42.130;24.746;2023-04-01T04:23:42;98559.56;;;7.97;100.00
8320;BME280;4197;42.130;24.746;2023-04-01T04:26:14;98568.13;;;8.03;100.00
8320;BME280;4197;42.130;24.746;2023-04-01T04:28:43;98565.91;;;8.09;100.00
8320;BME280;4197;42.130;24.746;2023-04-01T04:31:11;98567.13;;;8.11;100.00
8320;BME280;4197;42.130;24.746;2023-04-01T04:33:41;98568.22;;;8.07;100.00
8320;BME280;4197;42.130;24.746;2023-04-01T04:36:09;98553.13;;;8.05;100.00
8320;BME280;4197;42.130;24.746;2023-04-01T04:38:37;98556.34;;;8.34;100.00
8320;BME280;4197;42.130;24.746;2023-04-01T04:43:38;98562.78;;;8.49;100.00
8320;BME280;4197;42.130;24.746;2023-04-01T04:46:07;98557.66;;;8.67;100.00
8320;BME280;4197;42.130;24.746;2023-04-01T04:48:36;98564.22;;;8.66;100.00
8320;BME280;4197;42.130;24.746;2023-04-01T04:51:06;98567.59;;;8.59;100.00
8320;BME280;4197;42.130;24.746;2023-04-01T04:53:36;98572.81;;;8.48;100.00
8320;BME280;4197;42.130;24.746;2023-04-01T04:56:05;98573.00;;;8.59;100.00
8320;BME280;4197;42.130;24.746;2023-04-01T04:58:33;98572.06;;;8.75;100.00
8320;BME280;4197;42.130;24.746;2023-04-01T05:01:06;98571.81;;;8.83;100.00
8320;BME280;4197;42.130;24.746;2023-04-01T05:03:34;98564.59;;;8.91;100.00
8320;BME280;4197;42.130;24.746;2023-04-01T05:06:03;98562.47;;;9.04;100.00
8320;BME280;4197;42.130;24.746;2023-04-01T05:08:34;98557.25;;;9.18;100.00
8320;BME280;4197;42.130;24.746;2023-04-01T05:11:02;98567.63;;;9.12;100.00
8320;BME280;4197;42.130;24.746;2023-04-01T05:13:31;98569.66;;;9.23;100.00
8320;BME280;4197;42.130;24.746;2023-04-01T05:15:59;98569.34;;;9.28;100.00
8320;BME280;4197;42.130;24.746;2023-04-01T05:18:27;98574.09;;;9.34;100.00
8320;BME280;4197;42.130;24.746;2023-04-01T05:20:56;98565.25;;;9.37;100.00
8320;BME280;4197;42.130;24.746;2023-04-01T05:23:26;98557.19;;;9.45;100.00
8320;BME280;4197;42.130;24.746;2023-04-01T05:25:56;98546.56;;;9.59;100.00
8320;BME280;4197;42.130;24.746;2023-04-01T05:28:25;98548.91;;;9.60;100.00
8320;BME280;4197;42.130;24.746;2023-04-01T05:30:53;98549.75;;;9.68;100.00
8320;BME280;4197;42.130;24.746;2023-04-01T05:33:21;98548.16;;;9.64;100.00
8320;BME280;4197;42.130;24.746;2023-04-01T05:35:50;98553.53;;;9.60;100.00
8320;BME280;4197;42.130;24.746;2023-04-01T05:38:18;98545.03;;;9.61;100.00
8320;BME280;4197;42.130;24.746;2023-04-01T05:40:47;98538.38;;;9.55;100.00
8320;BME280;4197;42.130;24.746;2023-04-01T05:43:17;98524.81;;;9.52;100.00
8320;BME280;4197;42.130;24.746;2023-04-01T05:45:46;98519.28;;;9.41;100.00
8320;BME280;4197;42.130;24.746;2023-04-01T05:48:16;98519.53;;;9.29;100.00
8320;BME280;4197;42.130;24.746;2023-04-01T05:50:44;98513.31;;;9.28;100.00
8320;BME280;4197;42.130;24.746;2023-04-01T05:53:13;98496.03;;;9.36;100.00
8320;BME280;4197;42.130;24.746;2023-04-01T05:55:41;98491.88;;;9.43;100.00
8320;BME280;4197;42.130;24.746;2023-04-01T05:58:09;98502.44;;;9.55;100.00
8320;BME280;4197;42.130;24.746;2023-04-01T06:00:39;98482.31;;;9.56;100.00
8320;BME280;4197;42.130;24.746;2023-04-01T06:03:07;98492.19;;;9.37;100.00
8320;BME280;4197;42.130;24.746;2023-04-01T06:05:39;98497.22;;;9.39;100.00
8320;BME280;4197;42.130;24.746;2023-04-01T06:08:11;98485.25;;;9.77;100.00
8320;BME280;4197;42.130;24.746;2023-04-01T06:10:50;98509.94;;;10.06;100.00
8320;BME280;4197;42.130;24.746;2023-04-01T06:13:30;98477.50;;;10.17;100.00
8320;BME280;4197;42.130;24.746;2023-04-01T06:16:13;98465.78;;;10.02;100.00
8320;BME280;4197;42.130;24.746;2023-04-01T06:18:59;98463.41;;;9.97;100.00
8320;BME280;4197;42.130;24.746;2023-04-01T06:21:51;98451.81;;;10.00;100.00
8320;BME280;4197;42.130;24.746;2023-04-01T06:24:50;98450.16;;;9.88;100.00
8320;BME280;4197;42.130;24.746;2023-04-01T06:27:36;98461.56;;;10.08;100.00
8320;BME280;4197;42.130;24.746;2023-04-01T06:30:24;98462.53;;;10.30;100.00
8320;BME280;4197;42.130;24.746;2023-04-01T06:33:05;98462.72;;;10.55;100.00
8320;BME280;4197;42.130;24.746;2023-04-01T06:35:48;98462.13;;;10.87;99.65
8320;BME280;4197;42.130;24.746;2023-04-01T06:38:32;98465.56;;;10.73;99.07
8320;BME280;4197;42.130;24.746;2023-04-01T06:44:10;98470.06;;;10.55;100.00
8320;BME280;4197;42.130;24.746;2023-04-01T06:46:45;98474.09;;;10.79;100.00
8320;BME280;4197;42.130;24.746;2023-04-01T06:49:31;98458.72;;;11.04;98.35
8320;BME280;4197;42.130;24.746;2023-04-01T06:52:07;98457.09;;;10.89;99.35
8320;BME280;4197;42.130;24.746;2023-04-01T06:54:42;98455.25;;;11.00;99.62
8320;BME280;4197;42.130;24.746;2023-04-01T06:57:20;98456.44;;;11.13;98.29
8320;BME280;4197;42.130;24.746;2023-04-01T06:59:54;98467.41;;;11.42;97.52
8320;BME280;4197;42.130;24.746;2023-04-01T07:02:29;98476.81;;;11.73;95.10
8320;BME280;4197;42.130;24.746;2023-04-01T07:05:04;98473.75;;;11.89;92.83
8320;BME280;4197;42.130;24.746;2023-04-01T07:07:35;98477.56;;;11.67;94.43
8320;BME280;4197;42.130;24.746;2023-04-01T07:10:10;98457.06;;;12.05;93.20
8320;BME280;4197;42.130;24.746;2023-04-01T07:12:45;98446.22;;;12.09;90.25
8320;BME280;4197;42.130;24.746;2023-04-01T07:15:19;98438.81;;;12.16;90.37
8320;BME280;4197;42.130;24.746;2023-04-01T07:17:53;98446.19;;;12.41;89.08
8320;BME280;4197;42.130;24.746;2023-04-01T07:20:26;98440.72;;;12.55;88.10
8320;BME280;4197;42.130;24.746;2023-04-01T07:23:02;98423.31;;;12.17;89.75
8320;BME280;4197;42.130;24.746;2023-04-01T07:25:33;98438.81;;;12.27;91.45
8320;BME280;4197;42.130;24.746;2023-04-01T07:28:05;98431.78;;;12.62;89.44
8320;BME280;4197;42.130;24.746;2023-04-01T07:30:42;98416.31;;;12.12;90.67
8320;BME280;4197;42.130;24.746;2023-04-01T07:33:16;98410.84;;;11.80;93.31
8320;BME280;4197;42.130;24.746;2023-04-01T07:35:52;98421.34;;;11.81;94.15
8320;BME280;4197;42.130;24.746;2023-04-01T07:38:29;98421.75;;;11.87;94.34
8320;BME280;4197;42.130;24.746;2023-04-01T07:41:08;98419.03;;;12.16;93.53
8320;BME280;4197;42.130;24.746;2023-04-01T07:43:53;98410.09;;;12.04;93.64
8320;BME280;4197;42.130;24.746;2023-04-01T07:46:37;98410.47;;;12.35;93.23
8320;BME280;4197;42.130;24.746;2023-04-01T07:49:13;98414.63;;;12.86;89.68
8320;BME280;4197;42.130;24.746;2023-04-01T07:51:48;98408.34;;;12.97;88.06
8320;BME280;4197;42.130;24.746;2023-04-01T07:54:24;98418.75;;;13.30;86.83
8320;BME280;4197;42.130;24.746;2023-04-01T07:56:59;98416.25;;;13.57;84.63
8320;BME280;4197;42.130;24.746;2023-04-01T07:59:35;98415.22;;;13.93;82.14
8320;BME280;4197;42.130;24.746;2023-04-01T08:02:15;98413.09;;;14.15;80.56
8320;BME280;4197;42.130;24.746;2023-04-01T08:04:55;98412.13;;;13.94;80.30
8320;BME280;4197;42.130;24.746;2023-04-01T08:07:33;98408.69;;;13.83;82.21
8320;BME280;4197;42.130;24.746;2023-04-01T08:10:13;98407.44;;;13.95;80.77
8320;BME280;4197;42.130;24.746;2023-04-01T08:12:50;98401.63;;;13.89;81.78
8320;BME280;4197;42.130;24.746;2023-04-01T08:15:23;98385.63;;;13.35;84.07
8320;BME280;4197;42.130;24.746;2023-04-01T08:18:03;98384.84;;;13.42;83.43
8320;BME280;4197;42.130;24.746;2023-04-01T08:20:37;98372.97;;;12.97;85.13
8320;BME280;4197;42.130;24.746;2023-04-01T08:23:12;98367.31;;;12.55;89.19
8320;BME280;4197;42.130;24.746;2023-04-01T08:25:46;98373.56;;;12.41;90.63
8320;BME280;4197;42.130;24.746;2023-04-01T08:28:21;98379.38;;;12.43;90.80
8320;BME280;4197;42.130;24.746;2023-04-01T08:30:56;98370.47;;;12.39;91.21
8320;BME280;4197;42.130;24.746;2023-04-01T08:33:30;98364.19;;;12.57;90.33
8320;BME280;4197;42.130;24.746;2023-04-01T08:36:03;98360.75;;;12.45;91.07
8320;BME280;4197;42.130;24.746;2023-04-01T08:38:39;98349.44;;;12.47;90.56
8320;BME280;4197;42.130;24.746;2023-04-01T08:41:25;98353.78;;;12.37;91.41
8320;BME280;4197;42.130;24.746;2023-04-01T08:44:19;98359.56;;;12.50;91.32
8320;BME280;4197;42.130;24.746;2023-04-01T08:47:13;98345.22;;;12.39;92.15
8320;BME280;4197;42.130;24.746;2023-04-01T08:50:12;98331.94;;;12.62;91.48
8320;BME280;4197;42.130;24.746;2023-04-01T08:52:52;98329.59;;;12.68;89.80
8320;BME280;4197;42.130;24.746;2023-04-01T08:55:34;98317.84;;;12.89;88.96
8320;BME280;4197;42.130;24.746;2023-04-01T08:58:30;98322.84;;;12.98;88.34
8320;BME280;4197;42.130;24.746;2023-04-01T09:01:14;98316.06;;;13.24;88.60
8320;BME280;4197;42.130;24.746;2023-04-01T09:06:42;98308.00;;;13.65;83.10
8320;BME280;4197;42.130;24.746;2023-04-01T09:12:28;98280.44;;;13.59;84.78
8320;BME280;4197;42.130;24.746;2023-04-01T09:15:20;98274.13;;;13.70;84.66
8320;BME280;4197;42.130;24.746;2023-04-01T09:18:24;98271.31;;;13.80;81.99
8320;BME280;4197;42.130;24.746;2023-04-01T09:27:05;98244.78;;;14.19;81.16
8320;BME280;4197;42.130;24.746;2023-04-01T09:30:01;98246.47;;;14.09;78.51
8320;BME280;4197;42.130;24.746;2023-04-01T09:33:02;98243.25;;;13.80;79.67
8320;BME280;4197;42.130;24.746;2023-04-01T09:35:39;98241.81;;;13.68;80.70
8320;BME280;4197;42.130;24.746;2023-04-01T09:38:28;98240.63;;;13.73;81.86
8320;BME280;4197;42.130;24.746;2023-04-01T09:40:58;98229.19;;;13.89;81.88
8320;BME280;4197;42.130;24.746;2023-04-01T09:43:46;98230.81;;;14.17;80.04
8320;BME280;4197;42.130;24.746;2023-04-01T09:46:24;98236.88;;;14.32;78.68
8320;BME280;4197;42.130;24.746;2023-04-01T09:52:04;98249.88;;;14.51;78.31
8320;BME280;4197;42.130;24.746;2023-04-01T09:54:48;98246.34;;;14.85;75.95
8320;BME280;4197;42.130;24.746;2023-04-01T10:00:47;98219.81;;;14.85;74.59
8320;BME280;4197;42.130;24.746;2023-04-01T10:03:46;98206.69;;;14.77;74.21
8320;BME280;4197;42.130;24.746;2023-04-01T10:10:03;98191.63;;;15.19;73.37
8320;BME280;4197;42.130;24.746;2023-04-01T10:12:54;98182.28;;;14.93;74.14
8320;BME280;4197;42.130;24.746;2023-04-01T10:19:10;98180.69;;;15.43;72.54
8320;BME280;4197;42.130;24.746;2023-04-01T10:22:04;98169.06;;;15.38;72.93
8320;BME280;4197;42.130;24.746;2023-04-01T10:27:50;98145.66;;;15.81;69.62
8320;BME280;4197;42.130;24.746;2023-04-01T10:30:58;98140.97;;;15.81;69.63
8320;BME280;4197;42.130;24.746;2023-04-01T10:36:47;98146.00;;;16.03;69.07
8320;BME280;4197;42.130;24.746;2023-04-01T10:39:33;98137.34;;;16.04;69.14
8320;BME280;4197;42.130;24.746;2023-04-01T10:42:30;98123.69;;;16.04;68.83
8320;BME280;4197;42.130;24.746;2023-04-01T10:45:35;98106.44;;;15.68;70.34
8320;BME280;4197;42.130;24.746;2023-04-01T10:51:45;98074.34;;;15.52;71.74
8320;BME280;4197;42.130;24.746;2023-04-01T10:54:35;98066.03;;;15.59;72.23
8320;BME280;4197;42.130;24.746;2023-04-01T10:57:28;98077.19;;;16.04;70.14
8320;BME280;4197;42.130;24.746;2023-04-01T11:06:47;98035.81;;;16.71;67.02
8320;BME280;4197;42.130;24.746;2023-04-01T11:12:36;98052.50;;;16.93;65.31
8320;BME280;4197;42.130;24.746;2023-04-01T11:18:42;98038.44;;;17.08;64.93
8320;BME280;4197;42.130;24.746;2023-04-01T11:24:52;98017.91;;;17.00;65.63
8320;BME280;4197;42.130;24.746;2023-04-01T11:27:46;98021.09;;;16.82;65.88
8320;BME280;4197;42.130;24.746;2023-04-01T11:30:28;98015.78;;;17.20;63.39
8320;BME280;4197;42.130;24.746;2023-04-01T11:33:00;98020.91;;;17.18;63.60
8320;BME280;4197;42.130;24.746;2023-04-01T11:35:55;98016.66;;;17.46;62.79
8320;BME280;4197;42.130;24.746;2023-04-01T11:38:42;98010.75;;;17.73;61.49
8320;BME280;4197;42.130;24.746;2023-04-01T11:41:24;97996.31;;;17.98;60.88
8320;BME280;4197;42.130;24.746;2023-04-01T11:44:08;97987.66;;;18.25;59.47
8320;BME280;4197;42.130;24.746;2023-04-01T11:46:46;97988.81;;;18.37;58.49
8320;BME280;4197;42.130;24.746;2023-04-01T11:49:33;97974.25;;;18.40;58.04
8320;BME280;4197;42.130;24.746;2023-04-01T11:52:15;97968.16;;;18.58;57.23
8320;BME280;4197;42.130;24.746;2023-04-01T11:54:56;97975.81;;;18.63;57.40
8320;BME280;4197;42.130;24.746;2023-04-01T11:57:49;97989.22;;;18.74;56.95
8320;BME280;4197;42.130;24.746;2023-04-01T12:00:49;97983.50;;;18.68;57.12
8320;BME280;4197;42.130;24.746;2023-04-01T12:03:41;97980.00;;;18.68;56.63
8320;BME280;4197;42.130;24.746;2023-04-01T12:06:19;97982.78;;;18.55;57.50
8320;BME280;4197;42.130;24.746;2023-04-01T12:09:00;97977.00;;;18.40;58.37
8320;BME280;4197;42.130;24.746;2023-04-01T12:11:35;97971.72;;;18.20;58.32
8320;BME280;4197;42.130;24.746;2023-04-01T12:14:16;97968.25;;;18.07;59.26
8320;BME280;4197;42.130;24.746;2023-04-01T12:16:54;97969.56;;;18.02;59.94
8320;BME280;4197;42.130;24.746;2023-04-01T12:19:33;97949.72;;;17.86;60.69
8320;BME280;4197;42.130;24.746;2023-04-01T12:22:18;97936.97;;;17.79;60.85
8320;BME280;4197;42.130;24.746;2023-04-01T12:24:59;97924.16;;;17.89;60.72
8320;BME280;4197;42.130;24.746;2023-04-01T12:27:39;97904.56;;;18.25;59.45
8320;BME280;4197;42.130;24.746;2023-04-01T12:33:25;97904.63;;;18.82;57.48
8320;BME280;4197;42.130;24.746;2023-04-01T12:36:04;97907.84;;;19.11;56.62
8320;BME280;4197;42.130;24.746;2023-04-01T12:38:44;97894.94;;;19.21;56.84
8320;BME280;4197;42.130;24.746;2023-04-01T12:41:24;97898.13;;;19.20;56.67
8320;BME280;4197;42.130;24.746;2023-04-01T12:44:13;97884.34;;;19.42;56.71
8320;BME280;4197;42.130;24.746;2023-04-01T12:47:00;97870.75;;;19.38;56.86
8320;BME280;4197;42.130;24.746;2023-04-01T12:49:59;97878.34;;;19.34;57.42
8320;BME280;4197;42.130;24.746;2023-04-01T12:52:42;97868.91;;;19.35;56.41
8320;BME280;4197;42.130;24.746;2023-04-01T12:55:36;97868.78;;;19.48;56.19
8320;BME280;4197;42.130;24.746;2023-04-01T12:58:36;97881.25;;;19.30;57.16
8320;BME280;4197;42.130;24.746;2023-04-01T13:01:40;97867.06;;;19.32;56.46
8320;BME280;4197;42.130;24.746;2023-04-01T13:04:39;97873.31;;;19.32;56.87
8320;BME280;4197;42.130;24.746;2023-04-01T13:07:36;97874.34;;;19.26;55.88
8320;BME280;4197;42.130;24.746;2023-04-01T13:10:16;97860.84;;;19.09;56.63
8320;BME280;4197;42.130;24.746;2023-04-01T13:13:08;97849.69;;;19.35;56.17
8320;BME280;4197;42.130;24.746;2023-04-01T13:15:48;97839.19;;;19.52;55.08
8320;BME280;4197;42.130;24.746;2023-04-01T13:18:27;97852.53;;;19.63;54.35
8320;BME280;4197;42.130;24.746;2023-04-01T13:21:04;97860.78;;;19.63;53.54
8320;BME280;4197;42.130;24.746;2023-04-01T13:26:36;97860.72;;;19.13;53.72
8320;BME280;4197;42.130;24.746;2023-04-01T13:29:13;97869.38;;;18.67;55.47
8320;BME280;4197;42.130;24.746;2023-04-01T13:31:58;97890.28;;;18.30;56.31
8320;BME280;4197;42.130;24.746;2023-04-01T13:34:39;97957.06;;;17.89;57.81
8320;BME280;4197;42.130;24.746;2023-04-01T13:37:26;98000.13;;;17.21;60.34
8320;BME280;4197;42.130;24.746;2023-04-01T13:40:14;98000.91;;;16.76;62.44
8320;BME280;4197;42.130;24.746;2023-04-01T13:42:49;98003.13;;;16.64;63.17
8320;BME280;4197;42.130;24.746;2023-04-01T13:45:23;98017.34;;;16.59;63.30
8320;BME280;4197;42.130;24.746;2023-04-01T13:48:20;98026.00;;;16.58;63.54
8320;BME280;4197;42.130;24.746;2023-04-01T13:51:23;98046.66;;;16.42;64.87
8320;BME280;4197;42.130;24.746;2023-04-01T13:54:29;98094.22;;;16.12;67.18
8320;BME280;4197;42.130;24.746;2023-04-01T13:57:19;98084.03;;;15.96;67.78
8320;BME280;4197;42.130;24.746;2023-04-01T14:00:03;98084.69;;;15.84;68.40
8320;BME280;4197;42.130;24.746;2023-04-01T14:02:55;98102.38;;;15.56;75.29
8320;BME280;4197;42.130;24.746;2023-04-01T14:05:46;98114.50;;;15.11;82.52
8320;BME280;4197;42.130;24.746;2023-04-01T14:08:29;98140.56;;;14.69;85.83
8320;BME280;4197;42.130;24.746;2023-04-01T14:11:10;98145.06;;;14.52;86.70
8320;BME280;4197;42.130;24.746;2023-04-01T14:13:52;98152.78;;;14.57;89.69
8320;BME280;4197;42.130;24.746;2023-04-01T14:16:55;98153.69;;;14.74;90.13
8320;BME280;4197;42.130;24.746;2023-04-01T14:19:56;98154.22;;;14.92;87.26
8320;BME280;4197;42.130;24.746;2023-04-01T14:22:34;98138.63;;;15.16;85.43
8320;BME280;4197;42.130;24.746;2023-04-01T14:25:38;98139.22;;;15.48;81.65
8320;BME280;4197;42.130;24.746;2023-04-01T14:28:18;98123.16;;;15.73;80.80
8320;BME280;4197;42.130;24.746;2023-04-01T14:31:00;98124.00;;;15.90;79.08
8320;BME280;4197;42.130;24.746;2023-04-01T14:33:42;98108.31;;;15.74;76.04
8320;BME280;4197;42.130;24.746;2023-04-01T14:36:37;98105.16;;;15.76;77.86
8320;BME280;4197;42.130;24.746;2023-04-01T14:39:30;98099.09;;;15.65;76.86
8320;BME280;4197;42.130;24.746;2023-04-01T14:42:19;98085.34;;;15.48;78.34
8320;BME280;4197;42.130;24.746;2023-04-01T14:45:20;98074.50;;;15.45;78.38
8320;BME280;4197;42.130;24.746;2023-04-01T14:47:56;98060.13;;;15.40;78.74
8320;BME280;4197;42.130;24.746;2023-04-01T14:50:41;98060.63;;;15.35;78.48
8320;BME280;4197;42.130;24.746;2023-04-01T14:53:16;98065.81;;;15.50;78.35
8320;BME280;4197;42.130;24.746;2023-04-01T14:55:53;98068.56;;;15.50;77.96
8320;BME280;4197;42.130;24.746;2023-04-01T14:58:23;98070.16;;;15.47;79.28
8320;BME280;4197;42.130;24.746;2023-04-01T15:01:07;98083.53;;;15.42;80.24
8320;BME280;4197;42.130;24.746;2023-04-01T15:03:45;98078.09;;;15.18;83.06
8320;BME280;4197;42.130;24.746;2023-04-01T15:06:35;98070.91;;;15.08;84.74
8320;BME280;4197;42.130;24.746;2023-04-01T15:09:14;98058.78;;;14.85;82.90
8320;BME280;4197;42.130;24.746;2023-04-01T15:12:01;98055.25;;;14.65;86.78